Time;durP1;ratioP1;P1;durP2;ratioP2;P2;SDS_P1;SDS_P2;PMS_P1;PMS_P2;Temp;Humidity;BMP_temperature;BMP_pressure;BME280_temperature;BME280_humidity;BME280_pressure;Samples;Min_cycle;Max_cycle;Signal;HPM_P1;HPM_P2
2023/08/06 00:00:27;;;;;;;11.43;3.10;;;16.90;99.90;;;;;;7298136;19;20208;-78
2023/08/06 00:02:53;;;;;;;7.07;2.87;;;16.90;99.90;;;;;;7297472;19;20203;-78
2023/08/06 00:05:20;;;;;;;12.60;3.40;;;16.90;99.90;;;;;;7282163;19;20287;-78
2023/08/06 00:07:50;;;;;;;13.50;3.50;;;16.90;99.90;;;;;;7283542;19;20199;-78
2023/08/06 00:10:16;;;;;;;9.67;3.07;;;17.00;99.90;;;;;;7281635;19;20200;-78
2023/08/06 00:12:43;;;;;;;6.83;2.80;;;17.00;99.90;;;;;;7282713;19;20196;-78
2023/08/06 00:15:10;;;;;;;12.30;3.93;;;17.00;99.90;;;;;;7284813;19;20659;-79
2023/08/06 00:17:36;;;;;;;10.93;4.10;;;17.00;99.90;;;;;;7289536;19;20291;-79
2023/08/06 00:20:05;;;;;;;13.03;4.20;;;17.00;99.90;;;;;;7289421;19;20221;-79
2023/08/06 00:22:35;;;;;;;11.77;3.90;;;16.90;99.90;;;;;;7289959;19;20203;-79
2023/08/06 00:25:01;;;;;;;10.37;4.37;;;16.90;99.90;;;;;;7287970;19;20198;-79
2023/08/06 00:27:27;;;;;;;19.83;5.07;;;16.90;99.90;;;;;;7307140;19;20199;-78
2023/08/06 00:29:53;;;;;;;12.47;4.40;;;16.80;99.90;;;;;;7300920;19;20708;-79
2023/08/06 00:32:19;;;;;;;15.53;4.83;;;16.80;99.90;;;;;;7288793;19;20306;-79
2023/08/06 00:34:44;;;;;;;12.10;5.20;;;16.80;99.90;;;;;;7288250;19;20194;-80
2023/08/06 00:37:10;;;;;;;13.30;5.77;;;16.90;99.90;;;;;;7288617;19;20189;-79
2023/08/06 00:39:37;;;;;;;17.97;6.10;;;17.00;99.90;;;;;;7286572;19;20199;-78
2023/08/06 00:42:03;;;;;;;17.80;5.67;;;17.00;99.90;;;;;;7288949;19;20207;-78
2023/08/06 00:44:29;;;;;;;15.00;5.60;;;17.00;99.90;;;;;;7290246;19;20215;-78
2023/08/06 00:46:56;;;;;;;20.23;6.43;;;17.00;99.90;;;;;;7310998;19;20297;-78
2023/08/06 00:49:21;;;;;;;15.10;5.93;;;17.10;99.90;;;;;;7288476;19;20187;-78
2023/08/06 00:51:47;;;;;;;15.27;6.40;;;17.00;99.90;;;;;;7286921;19;20298;-79
2023/08/06 00:54:14;;;;;;;15.13;6.63;;;17.10;99.90;;;;;;7287822;19;20212;-79
2023/08/06 00:56:42;;;;;;;15.47;6.90;;;17.20;99.90;;;;;;7288066;19;20296;-78
2023/08/06 00:59:08;;;;;;;17.37;7.27;;;17.20;99.90;;;;;;7288454;19;20194;-78
2023/08/06 01:01:34;;;;;;;16.97;7.70;;;17.20;99.90;;;;;;7288174;19;20232;-78
2023/08/06 01:04:01;;;;;;;17.40;8.00;;;17.20;99.90;;;;;;7287627;19;20277;-78
2023/08/06 01:06:44;;;;;;;17.60;9.00;;;17.10;99.90;;;;;;7307951;19;20232;-77
2023/08/06 01:09:25;;;;;;;16.30;8.40;;;17.00;99.90;;;;;;7287912;19;20273;-78
2023/08/06 01:12:11;;;;;;;17.93;8.30;;;17.00;99.90;;;;;;7286192;19;20183;-78
2023/08/06 01:14:52;;;;;;;17.03;8.10;;;16.90;99.90;;;;;;7185244;19;2004405;-79
2023/08/06 01:17:18;;;;;;;18.07;9.10;;;17.00;99.90;;;;;;7286580;19;20189;-79
2023/08/06 01:19:44;;;;;;;19.37;9.63;;;17.10;99.90;;;;;;7285956;19;20220;-78
2023/08/06 01:22:10;;;;;;;23.77;8.40;;;17.00;99.90;;;;;;7287239;19;20189;-79
2023/08/06 01:24:36;;;;;;;21.23;8.47;;;17.20;99.90;;;;;;7286263;19;20268;-79
2023/08/06 01:27:08;;;;;;;20.37;9.00;;;17.10;99.90;;;;;;7283025;19;20192;-78
2023/08/06 01:29:41;;;;;;;18.50;8.07;;;17.20;99.90;;;;;;7287044;19;20191;-79
2023/08/06 01:32:11;;;;;;;19.77;7.40;;;17.20;99.90;;;;;;7287612;19;20193;-79
2023/08/06 01:34:42;;;;;;;14.97;6.60;;;17.20;99.90;;;;;;7285365;19;20206;-78
2023/08/06 01:37:10;;;;;;;16.73;5.47;;;17.20;99.90;;;;;;7287442;19;20230;-78
2023/08/06 01:39:36;;;;;;;13.50;5.27;;;17.20;99.90;;;;;;7287194;19;20201;-78
2023/08/06 01:42:03;;;;;;;16.27;4.97;;;17.20;99.90;;;;;;7287938;19;20535;-77
2023/08/06 01:44:29;;;;;;;16.90;4.80;;;17.20;99.90;;;;;;7288211;19;20193;-78
2023/08/06 01:46:55;;;;;;;11.47;4.00;;;17.20;99.90;;;;;;7309038;19;20189;-78
2023/08/06 01:49:21;;;;;;;17.50;5.00;;;17.20;99.90;;;;;;7287730;19;20202;-78
2023/08/06 01:51:46;;;;;;;12.73;3.97;;;17.20;99.90;;;;;;7287742;19;20198;-79
2023/08/06 01:54:12;;;;;;;9.57;3.50;;;17.20;99.90;;;;;;7285846;19;20189;-79
2023/08/06 01:56:38;;;;;;;8.33;2.60;;;17.20;99.90;;;;;;7285917;19;20221;-79
2023/08/06 01:59:04;;;;;;;6.30;1.93;;;17.10;99.90;;;;;;7284112;19;20212;-79
2023/08/06 02:01:30;;;;;;;8.50;2.10;;;17.10;99.90;;;;;;7285356;19;20203;-78
2023/08/06 02:03:55;;;;;;;6.63;2.10;;;17.00;99.90;;;;;;7308065;19;20599;-78
2023/08/06 02:06:21;;;;;;;5.57;2.17;;;16.90;99.90;;;;;;7286231;19;20199;-78
2023/08/06 02:08:47;;;;;;;8.40;2.23;;;17.00;99.90;;;;;;7286796;19;20201;-78
2023/08/06 02:11:14;;;;;;;9.00;2.30;;;17.00;99.90;;;;;;7286400;19;20204;-78
2023/08/06 02:13:41;;;;;;;10.63;2.17;;;17.00;99.90;;;;;;7285876;19;20745;-78
2023/08/06 02:16:08;;;;;;;11.50;2.53;;;16.90;99.90;;;;;;7286132;19;20184;-78
2023/08/06 02:18:38;;;;;;;9.03;2.37;;;16.80;99.90;;;;;;7285709;19;20714;-78
2023/08/06 02:21:04;;;;;;;6.90;2.57;;;16.80;99.90;;;;;;7283947;19;20712;-78
2023/08/06 02:23:29;;;;;;;7.70;2.30;;;16.80;99.90;;;;;;7283928;19;20195;-78
2023/08/06 02:26:02;;;;;;;5.77;2.03;;;16.80;99.90;;;;;;7304674;19;20188;-78
2023/08/06 02:28:29;;;;;;;12.43;2.47;;;16.90;99.90;;;;;;7271594;19;20187;-78
2023/08/06 02:30:55;;;;;;;8.10;2.10;;;16.90;99.90;;;;;;7304495;19;20188;-79
2023/08/06 02:33:21;;;;;;;5.93;1.80;;;17.00;99.90;;;;;;7284480;19;20670;-80
2023/08/06 02:35:47;;;;;;;7.97;1.97;;;17.00;99.90;;;;;;7282571;19;22066;-79
2023/08/06 02:38:13;;;;;;;10.70;2.37;;;16.90;99.90;;;;;;7283513;19;20707;-79
2023/08/06 02:40:45;;;;;;;7.67;1.93;;;17.00;99.90;;;;;;7282228;19;20202;-79
2023/08/06 02:43:11;;;;;;;6.30;2.00;;;17.00;99.90;;;;;;7285707;19;20218;-79
2023/08/06 02:45:37;;;;;;;7.37;2.20;;;17.00;99.90;;;;;;7284931;19;20206;-79
2023/08/06 02:48:03;;;;;;;10.30;2.73;;;17.00;99.90;;;;;;7284809;19;20201;-79
2023/08/06 02:50:29;;;;;;;8.53;2.97;;;17.00;99.90;;;;;;7284847;19;20195;-79
2023/08/06 02:52:57;;;;;;;16.90;3.30;;;17.00;99.90;;;;;;7306345;19;20285;-79
2023/08/06 02:55:23;;;;;;;9.97;3.60;;;17.10;99.90;;;;;;7286330;19;20194;-79
2023/08/06 02:57:50;;;;;;;13.93;4.30;;;17.00;99.90;;;;;;7284885;19;20206;-79
2023/08/06 03:00:16;;;;;;;10.47;4.10;;;17.00;99.90;;;;;;7284288;19;20262;-79
2023/08/06 03:02:42;;;;;;;12.27;5.30;;;17.00;99.90;;;;;;7284006;19;20200;-80
2023/08/06 03:05:26;;;;;;;18.33;4.90;;;17.00;99.90;;;;;;7285235;19;20187;-78
2023/08/06 03:07:52;;;;;;;14.40;5.67;;;17.00;99.90;;;;;;7285179;19;20230;-79
2023/08/06 03:10:22;;;;;;;15.07;6.17;;;17.00;99.90;;;;;;7284872;19;20186;-78
2023/08/06 03:12:50;;;;;;;16.90;6.30;;;17.00;99.90;;;;;;7284165;19;20194;-79
2023/08/06 03:15:17;;;;;;;19.50;8.43;;;17.00;99.90;;;;;;7284749;19;20206;-80
2023/08/06 03:17:45;;;;;;;18.43;9.07;;;17.00;99.90;;;;;;7284925;19;20194;-79
2023/08/06 03:20:11;;;;;;;27.13;12.43;;;17.00;99.90;;;;;;7283379;19;20196;-79
2023/08/06 03:22:37;;;;;;;22.83;10.10;;;16.90;99.90;;;;;;7284504;19;20202;-79
2023/08/06 03:25:04;;;;;;;17.30;7.57;;;16.90;99.90;;;;;;7283714;19;20194;-79
2023/08/06 03:27:30;;;;;;;12.63;4.90;;;16.80;99.90;;;;;;7284525;19;20221;-79
2023/08/06 03:29:56;;;;;;;14.90;3.60;;;16.70;99.90;;;;;;7305409;19;20658;-79
2023/08/06 03:32:25;;;;;;;6.83;2.70;;;16.60;99.90;;;;;;7284947;19;20177;-80
2023/08/06 03:34:52;;;;;;;8.97;3.07;;;16.40;99.90;;;;;;7284304;19;20306;-79
2023/08/06 03:37:20;;;;;;;6.97;3.00;;;16.30;99.90;;;;;;7284136;19;20194;-80
2023/08/06 03:39:48;;;;;;;10.03;3.00;;;16.10;99.90;;;;;;7284191;19;20193;-79
2023/08/06 03:42:14;;;;;;;8.13;3.10;;;16.10;99.90;;;;;;7284070;19;20693;-79
2023/08/06 03:44:40;;;;;;;12.20;3.67;;;16.00;99.90;;;;;;7284014;19;20197;-79
2023/08/06 03:47:08;;;;;;;7.67;4.10;;;16.00;99.90;;;;;;7281441;19;20536;-79
2023/08/06 03:49:34;;;;;;;10.20;4.17;;;15.90;99.90;;;;;;7283782;19;20191;-79
2023/08/06 03:52:00;;;;;;;8.27;3.40;;;15.70;99.90;;;;;;7289223;19;20186;-78
2023/08/06 03:54:26;;;;;;;8.47;4.00;;;15.60;99.90;;;;;;7312946;19;20670;-78
2023/08/06 03:56:51;;;;;;;9.10;4.10;;;15.30;99.90;;;;;;7289849;19;20183;-79
2023/08/06 03:59:17;;;;;;;9.20;4.43;;;15.30;99.90;;;;;;7289551;19;20205;-78
2023/08/06 04:01:45;;;;;;;10.20;4.53;;;15.30;99.90;;;;;;7290606;19;20193;-78
2023/08/06 04:04:11;;;;;;;12.80;4.40;;;15.20;99.90;;;;;;7290621;19;20689;-78
2023/08/06 04:06:36;;;;;;;9.43;3.97;;;15.20;99.90;;;;;;7289523;19;20679;-78
2023/08/06 04:09:02;;;;;;;10.23;4.60;;;15.20;99.90;;;;;;7287964;19;20185;-78
2023/08/06 04:11:28;;;;;;;10.30;3.70;;;15.20;99.90;;;;;;7304011;19;20201;-78
2023/08/06 04:13:55;;;;;;;12.90;4.00;;;15.20;99.90;;;;;;7306776;19;20183;-78
2023/08/06 04:16:21;;;;;;;9.87;3.50;;;15.10;99.90;;;;;;7289418;19;20195;-78
2023/08/06 04:18:47;;;;;;;12.50;3.70;;;15.10;99.90;;;;;;7288634;19;20181;-78
2023/08/06 04:21:13;;;;;;;10.33;3.37;;;15.00;99.90;;;;;;7288743;19;20285;-78
2023/08/06 04:23:39;;;;;;;9.77;3.70;;;14.90;99.90;;;;;;7289112;19;20200;-78
2023/08/06 04:26:07;;;;;;;9.20;3.93;;;15.00;99.90;;;;;;7289213;19;20804;-78
2023/08/06 04:28:35;;;;;;;11.40;4.87;;;15.00;99.90;;;;;;7289559;19;20580;-78
2023/08/06 04:31:01;;;;;;;13.00;5.00;;;15.10;99.90;;;;;;7288062;19;20184;-78
2023/08/06 04:33:28;;;;;;;12.40;5.33;;;15.20;99.90;;;;;;7300427;19;20195;-78
2023/08/06 04:35:57;;;;;;;10.13;4.63;;;15.20;99.90;;;;;;7310195;19;20177;-78
2023/08/06 04:38:25;;;;;;;10.37;5.33;;;15.10;99.90;;;;;;7289439;19;20226;-78
2023/08/06 04:40:52;;;;;;;15.77;5.63;;;15.10;99.90;;;;;;7288805;19;21037;-78
2023/08/06 04:43:17;;;;;;;14.13;6.13;;;15.10;99.90;;;;;;7290178;19;20191;-78
2023/08/06 04:45:50;;;;;;;14.40;6.23;;;15.00;99.90;;;;;;7287505;19;20193;-78
2023/08/06 04:48:16;;;;;;;13.00;5.93;;;15.10;99.90;;;;;;7287590;19;20226;-78
2023/08/06 04:50:47;;;;;;;15.07;5.87;;;15.20;99.90;;;;;;7287433;19;20193;-78
2023/08/06 04:53:12;;;;;;;13.80;5.33;;;15.20;99.90;;;;;;7288459;19;20195;-78
2023/08/06 04:55:38;;;;;;;11.40;5.17;;;15.20;99.90;;;;;;7289406;19;20207;-78
2023/08/06 04:58:05;;;;;;;14.60;5.60;;;15.20;99.90;;;;;;7288889;19;20595;-78
2023/08/06 05:00:30;;;;;;;14.17;5.47;;;15.10;99.90;;;;;;7287868;19;20213;-78
2023/08/06 05:02:56;;;;;;;15.70;5.30;;;15.20;99.90;;;;;;7311295;19;20196;-78
2023/08/06 05:05:22;;;;;;;14.33;5.87;;;15.30;99.90;;;;;;7288785;19;20185;-79
2023/08/06 05:07:49;;;;;;;14.10;6.40;;;15.30;99.90;;;;;;7289525;19;20281;-78
2023/08/06 05:10:15;;;;;;;16.87;6.73;;;15.40;99.90;;;;;;7288637;19;20197;-78
2023/08/06 05:12:41;;;;;;;19.60;6.70;;;15.40;99.90;;;;;;7287540;19;20196;-79
2023/08/06 05:15:07;;;;;;;18.40;6.90;;;15.50;99.90;;;;;;7288637;19;20200;-78
2023/08/06 05:17:33;;;;;;;16.17;6.57;;;15.50;99.90;;;;;;7290153;19;20197;-78
2023/08/06 05:19:59;;;;;;;16.43;6.50;;;15.60;99.90;;;;;;7292406;19;20333;-78
2023/08/06 05:22:25;;;;;;;19.00;5.87;;;15.50;99.90;;;;;;7310467;19;20276;-79
2023/08/06 05:24:51;;;;;;;19.33;5.83;;;15.60;99.90;;;;;;7286669;19;20189;-78
2023/08/06 05:27:18;;;;;;;21.77;6.10;;;15.60;99.90;;;;;;7287488;19;20565;-78
2023/08/06 05:29:45;;;;;;;19.13;5.70;;;15.60;99.90;;;;;;7287897;19;20250;-79
2023/08/06 05:32:11;;;;;;;16.20;4.83;;;15.70;99.90;;;;;;7287725;19;20639;-78
2023/08/06 05:34:37;;;;;;;16.20;5.20;;;15.70;99.90;;;;;;7287838;19;20185;-78
2023/08/06 05:37:03;;;;;;;13.43;4.30;;;15.80;99.90;;;;;;7287777;19;20197;-78
2023/08/06 05:39:29;;;;;;;19.27;4.70;;;15.80;99.90;;;;;;7292181;19;20273;-78
2023/08/06 05:41:55;;;;;;;11.87;4.63;;;15.70;99.90;;;;;;7310122;19;20213;-78
2023/08/06 05:44:21;;;;;;;18.03;4.57;;;15.70;99.90;;;;;;7288565;19;20657;-78
2023/08/06 05:46:48;;;;;;;16.70;3.93;;;15.70;99.90;;;;;;7287123;19;20187;-78
2023/08/06 05:49:14;;;;;;;16.90;4.10;;;15.80;99.90;;;;;;7289309;19;20186;-78
2023/08/06 05:51:40;;;;;;;17.30;4.70;;;15.70;99.90;;;;;;7289651;19;20177;-78
2023/08/06 05:54:06;;;;;;;17.03;5.10;;;15.70;99.90;;;;;;7287535;19;20194;-78
2023/08/06 05:56:33;;;;;;;14.87;4.80;;;15.80;99.90;;;;;;7287337;19;20191;-78
2023/08/06 05:58:59;;;;;;;14.63;4.37;;;15.70;99.90;;;;;;7311080;19;20650;-78
2023/08/06 06:01:24;;;;;;;16.90;4.30;;;15.70;99.90;;;;;;7320854;19;20213;-78
2023/08/06 06:03:50;;;;;;;18.50;4.40;;;15.80;99.90;;;;;;7302116;19;20240;-78
2023/08/06 06:06:17;;;;;;;13.00;4.07;;;15.80;99.90;;;;;;7302124;19;20189;-78
2023/08/06 06:08:44;;;;;;;13.00;3.83;;;15.80;99.90;;;;;;7297812;19;20655;-77
2023/08/06 06:11:09;;;;;;;14.43;4.17;;;15.90;99.90;;;;;;7287341;19;20513;-78
2023/08/06 06:13:35;;;;;;;14.10;3.93;;;16.00;99.90;;;;;;7284970;19;20184;-78
2023/08/06 06:16:01;;;;;;;15.80;4.13;;;16.00;99.90;;;;;;7288842;19;20210;-78
2023/08/06 06:18:27;;;;;;;18.40;4.30;;;16.10;99.90;;;;;;7309128;19;20613;-78
2023/08/06 06:20:52;;;;;;;11.90;4.20;;;16.20;99.90;;;;;;7285755;19;20194;-78
2023/08/06 06:23:18;;;;;;;18.17;4.47;;;16.30;99.90;;;;;;7283417;19;20200;-79
2023/08/06 06:25:48;;;;;;;18.83;4.20;;;16.40;99.90;;;;;;7284171;19;20202;-78
2023/08/06 06:28:14;;;;;;;16.37;4.50;;;16.50;99.90;;;;;;7285197;19;20827;-78
2023/08/06 06:30:41;;;;;;;17.13;4.40;;;16.50;99.90;;;;;;7285519;19;20194;-78
2023/08/06 06:33:07;;;;;;;16.73;4.20;;;16.60;99.90;;;;;;7286596;19;20181;-78
2023/08/06 06:35:33;;;;;;;18.50;4.40;;;16.60;99.90;;;;;;7286705;19;20192;-78
2023/08/06 06:37:59;;;;;;;13.97;4.03;;;16.60;99.90;;;;;;7295405;19;20308;-78
2023/08/06 06:40:26;;;;;;;15.47;4.43;;;16.60;99.90;;;;;;7308155;19;20206;-78
2023/08/06 06:42:51;;;;;;;16.33;4.47;;;16.60;99.90;;;;;;7286006;19;20179;-78
2023/08/06 06:45:17;;;;;;;13.80;3.67;;;16.70;99.90;;;;;;7286578;19;20200;-78
2023/08/06 06:47:43;;;;;;;12.87;3.77;;;16.80;99.90;;;;;;7283047;19;20190;-78
2023/08/06 06:50:09;;;;;;;18.50;3.70;;;17.00;99.90;;;;;;7284382;19;20303;-78
2023/08/06 06:52:35;;;;;;;18.93;4.10;;;17.00;99.90;;;;;;7283339;19;20713;-78
2023/08/06 06:55:01;;;;;;;14.60;3.93;;;17.00;99.90;;;;;;7284449;19;20195;-78
2023/08/06 06:57:27;;;;;;;12.00;3.63;;;16.80;99.90;;;;;;7306395;19;20305;-79
2023/08/06 06:59:52;;;;;;;16.40;3.33;;;16.70;99.90;;;;;;7283761;19;20197;-79
2023/08/06 07:02:18;;;;;;;9.00;2.53;;;16.60;99.90;;;;;;7282815;19;20208;-78
2023/08/06 07:04:44;;;;;;;12.93;2.20;;;16.40;99.90;;;;;;7285702;19;20194;-78
2023/08/06 07:07:10;;;;;;;13.53;2.60;;;16.20;99.90;;;;;;7283690;19;20190;-78
2023/08/06 07:09:36;;;;;;;10.50;2.40;;;16.20;99.90;;;;;;7284345;19;20189;-78
2023/08/06 07:12:02;;;;;;;9.90;2.30;;;16.20;99.90;;;;;;7283499;19;20183;-78
2023/08/06 07:14:28;;;;;;;9.93;2.37;;;16.20;99.90;;;;;;7305891;19;20183;-78
2023/08/06 07:16:54;;;;;;;9.67;2.10;;;16.30;99.90;;;;;;7284359;19;20201;-79
2023/08/06 07:19:20;;;;;;;9.20;2.00;;;16.50;99.90;;;;;;7285020;19;21053;-78
2023/08/06 07:21:46;;;;;;;9.60;1.43;;;16.50;99.90;;;;;;7283049;19;20840;-78
2023/08/06 07:24:12;;;;;;;12.27;1.70;;;16.50;99.90;;;;;;7282427;19;20572;-78
2023/08/06 07:26:38;;;;;;;14.27;1.40;;;16.30;99.90;;;;;;7282076;19;20191;-78
2023/08/06 07:29:04;;;;;;;12.13;1.50;;;16.10;99.90;;;;;;7282785;19;20189;-78
2023/08/06 07:31:29;;;;;;;11.43;1.70;;;15.90;99.90;;;;;;7291543;19;20196;-78
2023/08/06 07:33:55;;;;;;;12.60;1.77;;;15.80;99.90;;;;;;7306191;19;20174;-78
2023/08/06 07:36:21;;;;;;;12.50;1.50;;;15.80;99.90;;;;;;7283942;19;20188;-78
2023/08/06 07:38:51;;;;;;;9.27;1.80;;;16.00;99.90;;;;;;7283879;19;20205;-77
2023/08/06 07:41:17;;;;;;;14.47;1.70;;;16.20;99.90;;;;;;7283051;19;20188;-78
2023/08/06 07:43:42;;;;;;;11.47;1.53;;;16.60;99.90;;;;;;7282586;19;20268;-77
2023/08/06 07:46:08;;;;;;;10.33;1.70;;;16.80;99.90;;;;;;7282278;19;20206;-77
2023/08/06 07:48:34;;;;;;;10.70;1.60;;;17.00;99.90;;;;;;7281007;19;20293;-78
2023/08/06 07:51:00;;;;;;;11.87;2.03;;;17.10;99.90;;;;;;7289572;19;20182;-77
2023/08/06 07:53:27;;;;;;;14.83;1.80;;;17.20;99.90;;;;;;7305622;19;20184;-77
2023/08/06 07:55:54;;;;;;;13.83;1.97;;;17.10;99.90;;;;;;7280054;19;20185;-78
2023/08/06 07:58:20;;;;;;;16.10;2.13;;;17.00;99.90;;;;;;7283643;19;20188;-78
2023/08/06 08:00:47;;;;;;;13.30;2.10;;;17.00;99.90;;;;;;7282272;19;20893;-77
2023/08/06 08:03:13;;;;;;;11.97;2.20;;;16.90;99.90;;;;;;7283540;19;20577;-78
2023/08/06 08:05:40;;;;;;;12.87;2.17;;;17.00;99.90;;;;;;7282066;19;20194;-77
2023/08/06 08:08:06;;;;;;;9.50;1.93;;;17.10;99.90;;;;;;7281382;19;20641;-77
2023/08/06 08:10:32;;;;;;;14.07;2.20;;;17.10;99.90;;;;;;7281069;19;20190;-78
2023/08/06 08:12:58;;;;;;;9.27;1.77;;;17.20;99.90;;;;;;7304306;19;20198;-78
2023/08/06 08:15:26;;;;;;;13.60;2.70;;;17.10;99.90;;;;;;7282854;19;20211;-77
2023/08/06 08:17:52;;;;;;;12.93;1.93;;;17.20;99.90;;;;;;7284685;19;20190;-78
2023/08/06 08:20:18;;;;;;;9.03;1.83;;;17.20;99.90;;;;;;7281376;19;20267;-78
2023/08/06 08:22:44;;;;;;;7.83;1.80;;;17.00;99.90;;;;;;7281293;19;20199;-78
2023/08/06 08:25:10;;;;;;;10.80;1.83;;;17.00;99.90;;;;;;7280257;19;20208;-78
2023/08/06 08:27:36;;;;;;;10.40;1.67;;;17.10;99.90;;;;;;7282684;19;20198;-79
2023/08/06 08:30:01;;;;;;;8.60;1.50;;;17.20;99.90;;;;;;7281602;19;20187;-77
2023/08/06 08:32:27;;;;;;;11.20;1.50;;;17.30;99.90;;;;;;7301991;19;20195;-78
2023/08/06 08:41:50;;;;;;;10.57;2.17;;;17.50;99.90;;;;;;7084150;19;2004582;-78
2023/08/06 08:44:17;;;;;;;14.40;1.83;;;17.70;99.90;;;;;;7287015;19;20203;-78
2023/08/06 08:46:45;;;;;;;10.07;1.60;;;17.80;99.90;;;;;;7287466;19;21030;-78
2023/08/06 08:49:11;;;;;;;12.73;1.90;;;17.70;99.90;;;;;;7287719;19;20187;-77
2023/08/06 08:51:37;;;;;;;8.30;1.50;;;17.90;99.90;;;;;;7288561;19;20197;-78
2023/08/06 08:54:04;;;;;;;10.13;1.57;;;18.10;99.90;;;;;;7286584;19;20681;-78
2023/08/06 08:56:31;;;;;;;9.87;1.57;;;18.10;99.90;;;;;;7299192;19;20192;-77
2023/08/06 08:58:57;;;;;;;13.30;1.63;;;18.00;99.90;;;;;;7308841;19;20644;-78
2023/08/06 09:01:23;;;;;;;9.10;1.63;;;17.50;99.90;;;;;;7285977;19;20195;-78
2023/08/06 09:03:51;;;;;;;11.83;2.10;;;17.50;99.90;;;;;;7286913;19;20550;-78
2023/08/06 09:06:18;;;;;;;10.30;2.00;;;17.60;99.90;;;;;;7284785;19;20202;-78
2023/08/06 09:09:26;;;;;;;8.23;1.70;;;17.70;99.90;;;;;;7286176;19;20674;-77
2023/08/06 09:11:52;;;;;;;8.30;1.73;;;17.70;99.90;;;;;;7184995;19;2004495;-77
2023/08/06 09:14:18;;;;;;;11.90;2.10;;;17.80;99.90;;;;;;7284797;19;20203;-77
2023/08/06 09:16:44;;;;;;;15.77;2.30;;;17.50;99.90;;;;;;7286366;19;20941;-77
2023/08/06 09:19:17;;;;;;;7.57;1.83;;;17.20;99.90;;;;;;7287534;19;20206;-78
2023/08/06 09:21:43;;;;;;;11.90;2.17;;;17.30;99.90;;;;;;7287183;19;20195;-78
2023/08/06 09:24:10;;;;;;;9.90;2.13;;;17.30;99.90;;;;;;7288966;19;20193;-78
2023/08/06 09:26:37;;;;;;;11.97;1.87;;;17.60;99.90;;;;;;7283521;19;20187;-77
2023/08/06 09:29:06;;;;;;;10.47;1.87;;;17.60;99.90;;;;;;7284451;19;20208;-77
2023/08/06 09:31:46;;;;;;;12.13;2.07;;;17.50;99.90;;;;;;7285486;19;20210;-77
2023/08/06 09:34:16;;;;;;;9.83;1.70;;;17.40;99.90;;;;;;7283235;19;20196;-78
2023/08/06 09:36:45;;;;;;;13.83;2.00;;;17.20;99.90;;;;;;7285050;19;20277;-77
2023/08/06 09:39:19;;;;;;;10.77;2.10;;;17.20;99.90;;;;;;7283607;19;20204;-77
2023/08/06 09:41:47;;;;;;;13.37;2.20;;;17.20;99.90;;;;;;7283934;19;20294;-77
2023/08/06 09:44:18;;;;;;;12.40;1.83;;;17.30;99.90;;;;;;7284375;19;20690;-77
2023/08/06 09:47:04;;;;;;;12.57;2.17;;;17.10;99.90;;;;;;7284218;19;20193;-77
2023/08/06 09:49:32;;;;;;;9.97;2.37;;;17.00;99.90;;;;;;7274425;19;20214;-76
2023/08/06 09:51:59;;;;;;;12.97;2.30;;;16.80;99.90;;;;;;7307926;19;20540;-77
2023/08/06 09:54:26;;;;;;;10.13;1.90;;;16.70;99.90;;;;;;7284084;19;20210;-77
2023/08/06 09:56:54;;;;;;;12.93;2.10;;;16.70;99.90;;;;;;7284705;19;20285;-77
2023/08/06 09:59:20;;;;;;;11.87;2.00;;;16.80;99.90;;;;;;7283121;19;20212;-76
2023/08/06 10:01:46;;;;;;;8.43;1.90;;;16.90;99.90;;;;;;7281542;19;20189;-76
2023/08/06 10:04:16;;;;;;;12.73;2.13;;;16.90;99.90;;;;;;7284265;19;20209;-76
2023/08/06 10:06:42;;;;;;;12.87;1.97;;;16.50;99.90;;;;;;7282767;19;20189;-76
2023/08/06 10:09:09;;;;;;;14.87;2.03;;;16.60;99.90;;;;;;7283645;19;20190;-76
2023/08/06 10:11:37;;;;;;;10.43;1.70;;;16.70;99.90;;;;;;7283926;19;20538;-76
2023/08/06 10:14:08;;;;;;;11.60;1.90;;;16.60;99.90;;;;;;7282399;19;20185;-76
2023/08/06 10:16:36;;;;;;;7.40;1.43;;;16.60;99.90;;;;;;7283205;19;20783;-77
2023/08/06 10:19:04;;;;;;;11.77;2.17;;;16.70;99.90;;;;;;7282245;19;20180;-76
2023/08/06 10:21:31;;;;;;;12.00;2.27;;;16.70;99.90;;;;;;7295201;19;20187;-76
2023/08/06 10:23:58;;;;;;;12.20;2.00;;;16.70;99.90;;;;;;7303558;19;20189;-76
2023/08/06 10:26:30;;;;;;;9.67;1.97;;;16.70;99.90;;;;;;7279547;19;20255;-75
2023/08/06 10:28:56;;;;;;;9.97;2.00;;;16.80;99.90;;;;;;7281917;19;20193;-75
2023/08/06 10:31:55;;;;;;;8.80;1.50;;;17.00;99.90;;;;;;7282041;19;20195;-76
2023/08/06 10:34:21;;;;;;;11.07;1.90;;;16.90;99.90;;;;;;7175841;19;2006171;-76
2023/08/06 10:36:47;;;;;;;12.17;1.80;;;17.10;99.90;;;;;;7279169;19;20672;-75
2023/08/06 10:39:16;;;;;;;10.17;1.77;;;17.00;99.90;;;;;;7279622;19;20565;-76
2023/08/06 10:41:45;;;;;;;11.23;1.60;;;17.00;99.90;;;;;;7280104;19;20205;-77
2023/08/06 10:44:11;;;;;;;13.80;1.80;;;16.90;99.90;;;;;;7283664;19;20205;-77
2023/08/06 10:46:38;;;;;;;12.43;1.73;;;16.90;99.90;;;;;;7281020;19;20211;-76
2023/08/06 10:49:04;;;;;;;9.80;1.87;;;16.90;99.90;;;;;;7279954;19;20185;-76
2023/08/06 10:51:30;;;;;;;7.77;1.73;;;16.90;99.90;;;;;;7289741;19;20191;-77
2023/08/06 10:53:57;;;;;;;11.20;2.30;;;17.20;99.90;;;;;;7301936;19;20184;-77
2023/08/06 10:56:26;;;;;;;8.80;1.77;;;17.40;99.90;;;;;;7281306;19;20249;-77
2023/08/06 10:58:56;;;;;;;9.90;1.80;;;17.50;99.90;;;;;;7278411;19;20185;-77
2023/08/06 11:01:23;;;;;;;10.57;2.03;;;17.70;99.90;;;;;;7281388;19;20191;-77
2023/08/06 11:03:50;;;;;;;7.87;1.97;;;18.00;99.90;;;;;;7281746;19;20200;-76
2023/08/06 11:06:23;;;;;;;12.10;2.27;;;18.30;99.90;;;;;;7279727;19;20187;-77
2023/08/06 11:08:54;;;;;;;14.07;2.17;;;18.30;99.90;;;;;;7280857;19;20227;-77
2023/08/06 11:11:20;;;;;;;15.03;2.03;;;18.30;99.90;;;;;;7281105;19;20202;-77
2023/08/06 11:13:48;;;;;;;7.73;1.80;;;18.50;99.90;;;;;;7281241;19;20309;-77
2023/08/06 11:16:27;;;;;;;8.63;1.60;;;18.50;99.90;;;;;;7281215;19;20195;-77
2023/08/06 11:18:54;;;;;;;12.53;1.90;;;18.60;99.90;;;;;;7281536;19;20179;-77
2023/08/06 11:21:24;;;;;;;10.30;1.53;;;18.70;99.90;;;;;;7279659;19;20208;-77
2023/08/06 11:23:51;;;;;;;8.10;1.77;;;19.20;99.90;;;;;;7282256;19;20230;-77
2023/08/06 11:26:21;;;;;;;11.57;2.03;;;19.60;99.90;;;;;;7279804;19;20192;-77
2023/08/06 11:28:47;;;;;;;10.43;1.60;;;20.10;99.90;;;;;;7281784;19;20260;-77
2023/08/06 11:31:22;;;;;;;9.00;1.90;;;20.30;99.90;;;;;;7278577;19;20240;-77
2023/08/06 11:33:53;;;;;;;9.40;2.20;;;20.20;99.90;;;;;;7278173;19;20189;-77
2023/08/06 11:36:40;;;;;;;11.47;1.80;;;19.80;99.90;;;;;;7279298;19;20174;-77
2023/08/06 11:39:05;;;;;;;12.27;1.97;;;19.10;99.90;;;;;;7177412;19;2004699;-77
2023/08/06 11:41:32;;;;;;;8.60;1.63;;;18.90;99.90;;;;;;7276974;19;20588;-76
2023/08/06 11:44:02;;;;;;;7.70;1.83;;;18.60;99.90;;;;;;7300322;19;20858;-77
2023/08/06 11:46:28;;;;;;;8.43;1.80;;;18.10;99.90;;;;;;7279872;19;20251;-77
2023/08/06 11:48:58;;;;;;;11.83;2.10;;;17.90;99.90;;;;;;7279408;19;21138;-77
2023/08/06 11:51:28;;;;;;;8.73;1.30;;;17.90;99.90;;;;;;7280557;19;20175;-77
2023/08/06 11:54:00;;;;;;;10.43;2.00;;;18.10;99.90;;;;;;7278687;19;20261;-76
2023/08/06 11:56:27;;;;;;;11.73;2.07;;;17.90;99.90;;;;;;7279534;19;20210;-77
2023/08/06 11:58:55;;;;;;;8.97;2.10;;;17.60;99.90;;;;;;7280672;19;20200;-76
2023/08/06 12:01:20;;;;;;;9.80;2.20;;;17.50;99.90;;;;;;7279431;19;20181;-76
2023/08/06 12:03:46;;;;;;;9.50;1.80;;;17.50;99.90;;;;;;7275566;19;20677;-77
2023/08/06 12:06:12;;;;;;;12.57;2.13;;;17.30;99.90;;;;;;7278720;19;20207;-77
2023/08/06 12:08:38;;;;;;;11.17;1.60;;;17.20;99.90;;;;;;7277401;19;20562;-77
2023/08/06 12:11:04;;;;;;;9.50;1.90;;;16.90;99.90;;;;;;7283065;19;21282;-77
2023/08/06 12:13:29;;;;;;;12.10;2.27;;;16.90;99.90;;;;;;7305492;19;20207;-77
2023/08/06 12:15:57;;;;;;;11.37;1.73;;;17.10;99.90;;;;;;7298096;19;20194;-77
2023/08/06 12:18:23;;;;;;;9.87;1.87;;;17.50;99.90;;;;;;7285215;19;20190;-82
2023/08/06 12:20:49;;;;;;;11.40;1.80;;;17.70;99.90;;;;;;7287667;19;20190;-79
2023/08/06 12:23:15;;;;;;;7.80;1.57;;;17.70;99.90;;;;;;7289199;19;20291;-79
2023/08/06 12:25:41;;;;;;;6.87;1.73;;;18.00;99.90;;;;;;7288514;19;20202;-78
2023/08/06 12:28:09;;;;;;;7.20;1.60;;;17.80;99.90;;;;;;7286779;19;20197;-76
2023/08/06 12:30:34;;;;;;;9.73;2.07;;;17.70;99.90;;;;;;7286865;19;20194;-77
2023/08/06 12:33:00;;;;;;;8.10;1.90;;;17.70;99.90;;;;;;7298923;19;20190;-78
2023/08/06 12:35:26;;;;;;;10.13;1.93;;;17.80;99.90;;;;;;7304004;19;20737;-77
2023/08/06 12:37:54;;;;;;;11.17;1.90;;;17.80;99.90;;;;;;7286966;19;20187;-78
2023/08/06 12:40:20;;;;;;;7.10;1.83;;;17.60;99.90;;;;;;7286115;19;20201;-77
2023/08/06 12:42:46;;;;;;;8.30;2.10;;;17.30;99.90;;;;;;7283679;19;20191;-78
2023/08/06 12:45:12;;;;;;;9.80;2.30;;;16.80;99.90;;;;;;7288831;19;20646;-78